Terminal Aerodrome Forecast
Issued by NWS

Home | Current Version | Previous Version | Text Only | Print | Product List | Glossary On
Versions: 1 2 3 4 5 6 7 8 9 10 11 12
075
FTUS44 KTSA 031120
TAFXNA
TAF
KXNA 031120Z 0312/0412 08003KT P6SM VCSH OVC050
      TEMPO 0316/0320 5SM -RA BKN025
     FM032000 09006KT 4SM -RA BR OVC012
     FM040100 10005KT 2SM -RA BR OVC007
     FM040800 12004KT 2SM -RA BR OVC003=

USA.gov is the U.S. government's official web portal to all federal, state and local government web resources and services.